createdAt,value
2019-03-01T00:02:48.372Z,8.10
2019-03-01T00:07:37.369Z,7.83
2019-03-01T00:11:53.150Z,7.13
2019-03-01T00:16:11.461Z,7.13
2019-03-01T00:20:52.195Z,8.50
2019-03-01T00:25:09.328Z,8.77
2019-03-01T00:29:51.353Z,8.90
2019-03-01T00:34:40.155Z,8.83
2019-03-01T00:39:18.789Z,8.60
2019-03-01T00:43:59.663Z,8.10
2019-03-01T00:48:04.841Z,7.83
2019-03-01T00:52:10.353Z,7.40
2019-03-01T00:56:15.487Z,8.37
2019-03-01T01:00:43.100Z,8.40
2019-03-01T01:04:48.244Z,9.07
2019-03-01T01:08:53.346Z,8.67
2019-03-01T01:12:58.524Z,8.37
2019-03-01T01:17:03.605Z,8.00
2019-03-01T01:21:08.744Z,8.40
2019-03-01T01:25:13.939Z,7.80
2019-03-01T01:29:19.110Z,8.27
2019-03-01T01:33:24.281Z,9.37
2019-03-01T01:37:29.441Z,9.03
2019-03-01T01:41:34.597Z,9.37
2019-03-01T01:45:39.707Z,11.47
2019-03-01T01:49:45.105Z,11.23
2019-03-01T01:53:50.553Z,11.50
2019-03-01T01:57:55.698Z,11.83
2019-03-01T02:02:01.759Z,12.83
2019-03-01T02:06:07.012Z,13.80
2019-03-01T02:10:12.105Z,13.07
2019-03-01T02:14:17.166Z,14.10
2019-03-01T02:18:22.220Z,13.60
2019-03-01T02:22:27.413Z,14.67
2019-03-01T02:26:32.552Z,15.30
2019-03-01T02:30:37.706Z,16.37
2019-03-01T02:34:42.716Z,15.07
2019-03-01T02:38:47.909Z,16.23
2019-03-01T02:42:53.420Z,14.23
2019-03-01T02:46:58.557Z,15.40
2019-03-01T02:51:03.619Z,13.60
2019-03-01T02:55:09.613Z,15.90
2019-03-01T02:59:14.755Z,15.30
2019-03-01T03:03:19.914Z,12.43
2019-03-01T03:07:32.910Z,12.37
2019-03-01T03:11:37.987Z,13.20
2019-03-01T03:15:45.565Z,12.27
2019-03-01T03:19:50.674Z,12.77
2019-03-01T03:23:55.819Z,14.10
2019-03-01T03:28:00.916Z,13.33
2019-03-01T03:32:05.991Z,13.97
2019-03-01T03:36:11.068Z,14.17
2019-03-01T03:40:16.488Z,14.03
2019-03-01T03:44:21.567Z,13.70
2019-03-01T03:48:26.794Z,14.97
2019-03-01T03:52:31.944Z,15.73
2019-03-01T03:56:37.077Z,14.47
2019-03-01T04:00:42.298Z,15.10
2019-03-01T04:04:47.369Z,14.73
2019-03-01T04:08:52.577Z,13.27
2019-03-01T04:12:58.569Z,14.23
2019-03-01T04:17:03.754Z,15.13
2019-03-01T04:21:08.837Z,14.07
2019-03-01T04:25:14.001Z,13.75
2019-03-01T04:29:19.005Z,14.17
2019-03-01T04:33:24.041Z,13.50
2019-03-01T04:37:29.156Z,15.73
2019-03-01T04:41:34.206Z,15.90
2019-03-01T04:45:39.417Z,15.17
2019-03-01T04:49:46.271Z,14.17
2019-03-01T04:53:51.482Z,16.93
2019-03-01T04:57:56.624Z,15.87
2019-03-01T05:02:01.817Z,16.27
2019-03-01T05:06:06.951Z,16.93
2019-03-01T05:10:12.319Z,16.90
2019-03-01T05:14:17.515Z,18.10
2019-03-01T05:18:22.685Z,19.90
2019-03-01T05:22:27.720Z,20.27
2019-03-01T05:26:32.804Z,21.83
2019-03-01T05:30:37.885Z,22.57
2019-03-01T05:34:43.032Z,25.33
2019-03-01T05:38:48.110Z,26.87
2019-03-01T05:42:53.316Z,32.30
2019-03-01T05:47:00.753Z,43.73
2019-03-01T05:51:05.874Z,46.30
2019-03-01T05:55:11.126Z,50.27
2019-03-01T05:59:21.656Z,59.13
2019-03-01T06:03:56.158Z,58.30
2019-03-01T06:08:39.500Z,54.93
2019-03-01T06:13:23.180Z,59.97
2019-03-01T06:17:57.802Z,62.57
2019-03-01T06:22:56.249Z,65.47
2019-03-01T06:27:46.088Z,77.77
2019-03-01T06:32:34.912Z,72.60
2019-03-01T06:37:03.984Z,77.40
2019-03-01T06:41:35.281Z,82.77
2019-03-01T06:46:17.389Z,77.23
2019-03-01T06:50:44.194Z,80.33
2019-03-01T06:54:49.660Z,90.07
2019-03-01T06:58:59.913Z,86.87
2019-03-01T07:03:05.111Z,81.20
2019-03-01T07:07:10.487Z,81.87
2019-03-01T07:11:15.853Z,78.77
2019-03-01T07:15:21.070Z,82.30
2019-03-01T07:19:26.149Z,79.57
2019-03-01T07:23:36.808Z,73.00
2019-03-01T07:27:39.777Z,70.70
2019-03-01T07:31:44.894Z,65.33
2019-03-01T07:35:51.016Z,63.90
2019-03-01T07:39:56.049Z,67.93
2019-03-01T07:44:01.673Z,69.13
2019-03-01T07:48:06.786Z,74.80
2019-03-01T07:52:12.051Z,72.37
2019-03-01T07:56:17.154Z,68.37
2019-03-01T08:00:22.362Z,57.07
2019-03-01T08:04:29.552Z,50.60
2019-03-01T08:08:34.885Z,53.77
2019-03-01T08:12:42.500Z,52.13
2019-03-01T08:16:47.988Z,52.67
2019-03-01T08:20:53.141Z,55.00
2019-03-01T08:24:58.285Z,51.43
2019-03-01T08:29:03.553Z,45.27
2019-03-01T08:33:08.799Z,39.97
2019-03-01T08:37:14.513Z,39.53
2019-03-01T08:41:21.520Z,43.30
2019-03-01T08:45:29.687Z,42.50
2019-03-01T08:49:34.809Z,45.10
2019-03-01T08:53:39.888Z,40.47
2019-03-01T08:57:44.999Z,41.97
2019-03-01T09:01:50.206Z,39.97
2019-03-01T09:05:55.433Z,44.63
2019-03-01T09:10:00.611Z,42.03
2019-03-01T09:14:05.782Z,43.43
2019-03-01T09:18:14.571Z,42.00
2019-03-01T09:22:19.231Z,43.97
2019-03-01T09:26:24.533Z,46.53
2019-03-01T09:30:29.775Z,47.67
2019-03-01T09:34:34.972Z,44.33
2019-03-01T09:38:42.920Z,46.20
2019-03-01T09:42:51.267Z,40.93
2019-03-01T09:46:54.678Z,43.10
2019-03-01T09:50:59.857Z,39.57
2019-03-01T09:55:05.578Z,39.33
2019-03-01T09:59:11.061Z,39.23
2019-03-01T10:03:16.251Z,43.67
2019-03-01T10:07:21.413Z,38.73
2019-03-01T10:11:26.491Z,38.80
2019-03-01T10:15:31.665Z,37.73
2019-03-01T10:19:36.748Z,38.23
2019-03-01T10:23:41.970Z,39.63
2019-03-01T10:27:47.384Z,40.03
2019-03-01T10:31:52.538Z,38.40
2019-03-01T10:35:57.805Z,41.47
2019-03-01T10:40:03.916Z,41.20
2019-03-01T10:44:09.022Z,37.17
2019-03-01T10:48:14.150Z,42.40
2019-03-01T10:52:19.229Z,42.50
2019-03-01T10:56:24.439Z,45.30
2019-03-01T11:00:29.736Z,43.17
2019-03-01T11:04:35.002Z,46.00
2019-03-01T11:08:40.043Z,51.50
2019-03-01T11:12:45.262Z,46.97
2019-03-01T11:16:50.722Z,53.10
2019-03-01T11:20:55.842Z,46.80
2019-03-01T11:25:00.967Z,46.33
2019-03-01T11:29:06.126Z,49.53
2019-03-01T11:33:11.322Z,55.57
2019-03-01T11:37:16.480Z,56.67
2019-03-01T11:41:21.616Z,54.10
2019-03-01T11:45:26.678Z,61.03
2019-03-01T11:49:31.855Z,53.53
2019-03-01T11:53:37.043Z,51.47
2019-03-01T11:57:42.190Z,59.00
2019-03-01T12:01:47.317Z,61.10
2019-03-01T12:05:55.727Z,61.00
2019-03-01T12:10:00.855Z,48.33
2019-03-01T12:14:06.144Z,42.17
2019-03-01T12:18:11.336Z,42.83
2019-03-01T12:22:17.329Z,32.43
2019-03-01T12:26:22.473Z,25.27
2019-03-01T12:30:27.688Z,17.27
2019-03-01T12:34:33.228Z,15.13
2019-03-01T12:38:39.286Z,16.60
2019-03-01T12:42:44.406Z,16.53
2019-03-01T12:46:49.593Z,16.57
2019-03-01T12:50:55.083Z,16.07
2019-03-01T12:55:00.436Z,17.10
2019-03-01T12:59:05.574Z,16.13
2019-03-01T13:03:10.656Z,19.73
2019-03-01T13:07:15.765Z,18.50
2019-03-01T13:11:20.805Z,16.63
2019-03-01T13:15:28.126Z,16.53
2019-03-01T13:19:33.246Z,15.27
2019-03-01T13:23:40.471Z,15.03
2019-03-01T13:27:48.660Z,14.53
2019-03-01T13:31:52.301Z,15.47
2019-03-01T13:35:59.959Z,13.23
2019-03-01T13:40:06.308Z,14.70
2019-03-01T13:44:11.728Z,14.20
2019-03-01T13:48:18.948Z,14.27
2019-03-01T13:52:26.673Z,12.67
2019-03-01T13:56:32.799Z,14.40
2019-03-01T14:00:39.796Z,15.47
2019-03-01T14:04:44.974Z,17.00
2019-03-01T14:08:50.086Z,15.10
2019-03-01T14:12:55.287Z,17.43
2019-03-01T14:17:00.750Z,15.27
2019-03-01T14:21:06.324Z,14.83
2019-03-01T14:25:11.673Z,16.47
2019-03-01T14:29:17.807Z,14.23
2019-03-01T14:33:22.996Z,14.93
2019-03-01T14:37:28.421Z,14.27
2019-03-01T14:41:35.081Z,14.00
2019-03-01T14:45:41.658Z,13.63
2019-03-01T14:49:47.424Z,14.47
2019-03-01T14:53:52.574Z,14.60
2019-03-01T14:58:24.521Z,14.17
2019-03-01T15:02:44.121Z,14.10
2019-03-01T15:06:51.338Z,13.90
2019-03-01T15:10:56.294Z,14.50
2019-03-01T15:15:01.588Z,13.87
2019-03-01T15:19:09.018Z,13.67
2019-03-01T15:23:15.514Z,13.60
2019-03-01T15:27:20.544Z,12.97
2019-03-01T15:31:25.771Z,14.03
2019-03-01T15:35:30.897Z,13.57
2019-03-01T15:39:36.130Z,14.30
2019-03-01T15:43:41.274Z,13.83
2019-03-01T15:47:46.859Z,15.07
2019-03-01T15:51:51.996Z,14.77
2019-03-01T15:55:57.141Z,15.73
2019-03-01T16:00:03.449Z,15.20
2019-03-01T16:04:10.331Z,14.80
2019-03-01T16:08:15.443Z,15.63
2019-03-01T16:12:20.531Z,16.13
2019-03-01T16:16:25.675Z,16.67
2019-03-01T16:20:30.813Z,17.30
2019-03-01T16:24:37.566Z,13.13
2019-03-01T16:28:42.805Z,13.37
2019-03-01T16:32:50.392Z,11.33
2019-03-01T16:36:56.963Z,9.50
2019-03-01T16:41:07.442Z,8.87
2019-03-01T16:45:09.885Z,8.30
2019-03-01T16:49:15.404Z,8.30
2019-03-01T16:53:20.504Z,7.70
2019-03-01T16:57:25.733Z,8.17
2019-03-01T17:01:30.880Z,8.10
2019-03-01T17:05:38.736Z,8.37
2019-03-01T17:09:47.319Z,7.93
2019-03-01T17:13:51.705Z,8.63
2019-03-01T17:17:56.956Z,13.27
2019-03-01T17:22:03.071Z,10.10
2019-03-01T17:26:08.173Z,8.07
2019-03-01T17:30:17.693Z,8.17
2019-03-01T17:34:25.765Z,8.10
2019-03-01T17:38:30.069Z,8.63
2019-03-01T17:42:35.295Z,8.07
2019-03-01T17:46:40.343Z,9.00
2019-03-01T17:50:45.682Z,9.30
2019-03-01T17:54:51.941Z,9.90
2019-03-01T17:58:57.136Z,11.17
2019-03-01T18:03:02.525Z,10.93
2019-03-01T18:07:07.731Z,10.00
2019-03-01T18:11:12.867Z,12.97
2019-03-01T18:15:18.031Z,15.67
2019-03-01T18:19:23.789Z,12.17
2019-03-01T18:23:29.979Z,17.47
2019-03-01T18:27:35.094Z,12.30
2019-03-01T18:31:40.482Z,13.33
2019-03-01T18:35:45.728Z,14.77
2019-03-01T18:39:50.835Z,13.17
2019-03-01T18:43:55.982Z,17.03
2019-03-01T18:48:01.106Z,13.17
2019-03-01T18:52:06.228Z,11.07
2019-03-01T18:56:11.697Z,11.13
2019-03-01T19:00:22.360Z,8.63
2019-03-01T19:04:29.651Z,8.70
2019-03-01T19:08:36.460Z,7.17
2019-03-01T19:12:44.941Z,6.53
2019-03-01T19:16:48.697Z,7.20
2019-03-01T19:20:53.894Z,10.97
2019-03-01T19:24:59.083Z,8.43
2019-03-01T19:29:05.228Z,9.63
2019-03-01T19:33:10.405Z,9.70
2019-03-01T19:37:15.636Z,9.37
2019-03-01T19:41:22.941Z,8.17
2019-03-01T19:45:27.591Z,10.37
2019-03-01T19:49:34.136Z,9.23
2019-03-01T19:53:39.334Z,8.70
2019-03-01T19:57:44.439Z,15.67
2019-03-01T20:01:52.385Z,13.20
2019-03-01T20:05:56.420Z,13.27
2019-03-01T20:10:01.533Z,11.37
2019-03-01T20:14:11.960Z,10.77
2019-03-01T20:18:23.518Z,14.10
2019-03-01T20:22:27.874Z,12.13
2019-03-01T20:26:39.509Z,13.40
2019-03-01T20:30:41.064Z,15.00
2019-03-01T20:34:46.218Z,14.43
2019-03-01T20:38:51.313Z,15.17
2019-03-01T20:43:06.608Z,15.87
2019-03-01T20:47:06.395Z,14.90
2019-03-01T20:51:17.360Z,16.13
2019-03-01T20:55:26.132Z,15.70
2019-03-01T20:59:32.880Z,14.17
2019-03-01T21:03:38.087Z,15.50
2019-03-01T21:07:43.384Z,15.60
2019-03-01T21:11:52.108Z,16.03
2019-03-01T21:15:58.222Z,14.37
2019-03-01T21:20:04.688Z,14.50
2019-03-01T21:24:10.300Z,13.97
2019-03-01T21:28:15.418Z,13.93
2019-03-01T21:32:20.484Z,13.73
2019-03-01T21:36:27.123Z,11.77
2019-03-01T21:40:34.587Z,11.40
2019-03-01T21:44:42.589Z,9.90
2019-03-01T21:48:46.345Z,11.00
2019-03-01T21:52:51.558Z,9.83
2019-03-01T21:56:57.093Z,9.13
2019-03-01T22:01:02.663Z,8.70
2019-03-01T22:05:10.357Z,8.03
2019-03-01T22:09:16.806Z,7.83
2019-03-01T22:13:21.902Z,8.07
2019-03-01T22:17:27.261Z,7.40
2019-03-01T22:21:32.428Z,7.83
2019-03-01T22:25:37.901Z,8.20
2019-03-01T22:29:43.596Z,7.93
2019-03-01T22:33:55.873Z,7.93
2019-03-01T22:38:05.497Z,8.20
2019-03-01T22:42:15.781Z,8.40
2019-03-01T22:46:27.997Z,8.93
2019-03-01T22:50:39.499Z,9.93
2019-03-01T22:54:46.036Z,9.17
2019-03-01T22:58:54.777Z,10.93
2019-03-01T23:02:59.984Z,10.40
2019-03-01T23:07:05.270Z,11.43
2019-03-01T23:11:15.928Z,11.03
2019-03-01T23:15:27.642Z,11.87
2019-03-01T23:19:30.918Z,12.20
2019-03-01T23:23:38.863Z,13.07
2019-03-01T23:27:43.976Z,14.87
2019-03-01T23:31:49.109Z,14.87
2019-03-01T23:35:54.319Z,13.93
2019-03-01T23:40:00.986Z,14.33
2019-03-01T23:44:17.303Z,14.67
2019-03-01T23:48:22.405Z,16.17
2019-03-01T23:52:27.523Z,15.87
2019-03-01T23:56:32.636Z,17.40
